Terminal Aerodrome Forecast
Issued by NWS Shreveport, LA

Home | Current Version | Previous Version | Text Only | Print | Product List | Glossary On
Versions: 1 2 3 4 5 6 7 8 9 10 11 12 13 14 15 16 17
000
FTUS44 KSHV 240533
TAFGGG
TAF
KGGG 240533Z 2406/2506 17006KT P6SM FEW290
     FM241000 19005KT P6SM BKN010
     FM241200 19005KT 5SM BR OVC007
     FM241500 20009KT P6SM BKN020
     FM241600 21008KT P6SM OVC050
     FM242200 18006KT P6SM BKN060
     FM250100 16005KT P6SM SCT050 BKN070=

USA.gov is the U.S. government's official web portal to all federal, state and local government web resources and services.